createdAt,value
2023-03-02T00:01:01.941Z,6.68
2023-03-02T00:03:33.536Z,5.63
2023-03-02T00:06:03.638Z,4.75
2023-03-02T00:08:33.246Z,4.68
2023-03-02T00:11:05.629Z,5.13
2023-03-02T00:13:37.050Z,4.80
2023-03-02T00:16:07.333Z,5.03
2023-03-02T00:18:36.897Z,4.93
2023-03-02T00:21:10.731Z,5.07
2023-03-02T00:23:41.051Z,4.70
2023-03-02T00:26:13.606Z,4.45
2023-03-02T00:28:43.484Z,4.65
2023-03-02T00:31:13.741Z,4.68
2023-03-02T00:33:43.435Z,4.82
2023-03-02T00:36:18.245Z,4.80
2023-03-02T00:38:48.062Z,4.13
2023-03-02T00:41:21.612Z,4.90
2023-03-02T00:43:52.210Z,4.38
2023-03-02T00:46:24.298Z,4.50
2023-03-02T00:48:54.637Z,4.90
2023-03-02T00:51:25.148Z,4.18
2023-03-02T00:53:54.804Z,4.70
2023-03-02T00:56:26.940Z,4.60
2023-03-02T00:58:56.697Z,4.68
2023-03-02T01:01:27.268Z,4.10
2023-03-02T01:03:57.072Z,4.45
2023-03-02T01:06:26.646Z,4.00
2023-03-02T01:08:56.179Z,4.70
2023-03-02T01:11:28.814Z,4.55
2023-03-02T01:13:58.343Z,4.20
2023-03-02T01:16:27.973Z,3.90
2023-03-02T01:18:57.548Z,4.47
2023-03-02T01:21:27.133Z,4.22
2023-03-02T01:23:56.689Z,4.75
2023-03-02T01:26:28.803Z,4.63
2023-03-02T01:28:58.429Z,4.53
2023-03-02T01:31:29.233Z,4.28
2023-03-02T01:33:59.012Z,4.10
2023-03-02T01:36:28.750Z,4.50
2023-03-02T01:38:58.342Z,4.78
2023-03-02T01:41:30.498Z,4.70
2023-03-02T01:44:00.540Z,5.10
2023-03-02T01:46:35.287Z,4.68
2023-03-02T01:49:08.592Z,4.53
2023-03-02T01:51:55.820Z,5.45
2023-03-02T01:54:26.369Z,4.10
2023-03-02T01:57:05.120Z,4.68
2023-03-02T01:59:38.964Z,4.82
2023-03-02T02:02:11.938Z,5.03
2023-03-02T02:04:44.614Z,4.82
2023-03-02T02:07:14.388Z,4.78
2023-03-02T02:09:48.186Z,4.80
2023-03-02T02:12:23.697Z,5.03
2023-03-02T02:14:55.161Z,5.50
2023-03-02T02:17:25.005Z,5.50
2023-03-02T02:20:06.323Z,5.18
2023-03-02T02:22:46.128Z,4.93
2023-03-02T02:25:25.192Z,6.20
2023-03-02T02:27:58.176Z,5.85
2023-03-02T02:30:29.710Z,5.38
2023-03-02T02:33:01.049Z,5.00
2023-03-02T02:35:34.838Z,5.78
2023-03-02T02:38:07.022Z,4.63
2023-03-02T02:40:47.827Z,5.40
2023-03-02T02:43:24.549Z,5.55
2023-03-02T02:45:58.409Z,5.18
2023-03-02T02:48:31.278Z,5.47
2023-03-02T02:51:03.394Z,5.68
2023-03-02T02:53:41.073Z,5.15
2023-03-02T02:56:12.189Z,4.72
2023-03-02T02:58:49.190Z,4.50
2023-03-02T03:01:21.153Z,4.78
2023-03-02T03:03:54.656Z,4.82
2023-03-02T03:06:30.610Z,4.80
2023-03-02T03:09:03.355Z,4.60
2023-03-02T03:11:44.460Z,4.88
2023-03-02T03:14:19.639Z,4.68
2023-03-02T03:16:52.749Z,4.82
2023-03-02T03:19:27.051Z,4.88
2023-03-02T03:21:59.505Z,4.20
2023-03-02T03:24:33.027Z,3.92
2023-03-02T03:27:05.568Z,4.40
2023-03-02T03:29:42.843Z,4.13
2023-03-02T03:32:14.699Z,4.45
2023-03-02T03:34:45.197Z,4.40
2023-03-02T03:37:22.958Z,4.15
2023-03-02T03:39:52.969Z,4.55
2023-03-02T03:42:24.209Z,4.50
2023-03-02T03:44:57.388Z,3.97
2023-03-02T03:47:27.347Z,3.88
2023-03-02T03:49:57.670Z,4.15
2023-03-02T03:52:30.817Z,4.55
2023-03-02T03:55:09.451Z,4.82
2023-03-02T03:57:39.230Z,5.13
2023-03-02T04:00:15.123Z,4.43
2023-03-02T04:02:50.630Z,3.88
2023-03-02T04:05:20.932Z,4.25
2023-03-02T04:07:53.809Z,3.70
2023-03-02T04:10:24.684Z,3.65
2023-03-02T04:12:55.867Z,4.28
2023-03-02T04:15:28.846Z,3.80
2023-03-02T04:18:00.353Z,4.13
2023-03-02T04:20:31.151Z,4.50
2023-03-02T04:23:01.548Z,4.10
2023-03-02T04:25:32.886Z,4.10
2023-03-02T04:28:22.105Z,4.05
2023-03-02T04:30:54.868Z,4.03
2023-03-02T04:33:24.513Z,4.57
2023-03-02T04:35:55.881Z,4.80
2023-03-02T04:38:29.783Z,4.45
2023-03-02T04:41:00.482Z,4.40
2023-03-02T04:43:30.119Z,4.78
2023-03-02T04:46:02.603Z,4.53
2023-03-02T04:48:32.328Z,4.13
2023-03-02T04:51:01.920Z,4.88
2023-03-02T04:53:31.456Z,4.63
2023-03-02T04:56:01.338Z,4.53
2023-03-02T04:58:30.930Z,4.80
2023-03-02T05:01:03.672Z,4.72
2023-03-02T05:03:33.253Z,5.35
2023-03-02T05:06:02.848Z,5.60
2023-03-02T05:08:32.792Z,6.18
2023-03-02T05:11:02.719Z,5.15
2023-03-02T05:13:32.506Z,4.50
2023-03-02T05:16:05.254Z,5.53
2023-03-02T05:18:34.885Z,5.38
2023-03-02T05:21:04.488Z,5.05
2023-03-02T05:23:34.723Z,5.95
2023-03-02T05:26:04.386Z,19.85
2023-03-02T05:28:34.102Z,19.67
2023-03-02T05:31:06.691Z,11.25
2023-03-02T05:33:36.842Z,9.48
2023-03-02T05:36:06.752Z,9.27
2023-03-02T05:38:36.892Z,9.05
2023-03-02T05:41:07.396Z,7.65
2023-03-02T05:43:37.054Z,7.03
2023-03-02T05:46:09.227Z,7.70
2023-03-02T05:48:38.887Z,7.53
2023-03-02T05:51:08.777Z,7.10
2023-03-02T05:53:38.415Z,7.63
2023-03-02T05:56:08.601Z,7.18
2023-03-02T05:58:38.258Z,6.43
2023-03-02T06:01:18.485Z,6.97
2023-03-02T06:03:48.147Z,6.68
2023-03-02T06:06:17.755Z,6.70
2023-03-02T06:08:47.432Z,5.47
2023-03-02T06:11:17.025Z,6.13
2023-03-02T06:13:46.597Z,6.30
2023-03-02T06:16:18.849Z,5.88
2023-03-02T06:18:48.750Z,5.75
2023-03-02T06:21:18.454Z,6.22
2023-03-02T06:23:48.141Z,5.72
2023-03-02T06:26:17.752Z,5.88
2023-03-02T06:28:52.535Z,6.60
2023-03-02T06:31:25.805Z,6.97
2023-03-02T06:33:55.430Z,6.85
2023-03-02T06:36:25.098Z,7.28
2023-03-02T06:38:54.760Z,7.50
2023-03-02T06:41:25.626Z,7.35
2023-03-02T06:43:55.216Z,7.05
2023-03-02T06:46:27.364Z,7.50
2023-03-02T06:48:56.943Z,7.10
2023-03-02T06:51:26.480Z,6.80
2023-03-02T06:53:56.155Z,6.70
2023-03-02T06:56:26.092Z,6.57
2023-03-02T06:58:55.672Z,7.53
2023-03-02T07:01:28.773Z,15.23
2023-03-02T07:03:58.356Z,10.05
2023-03-02T07:06:28.028Z,11.52
2023-03-02T07:08:57.655Z,10.82
2023-03-02T07:11:27.408Z,11.57
2023-03-02T07:13:56.926Z,8.35
2023-03-02T07:16:29.132Z,9.20
2023-03-02T07:18:58.716Z,9.35
2023-03-02T07:21:28.546Z,8.30
2023-03-02T07:23:58.312Z,8.90
2023-03-02T07:26:27.903Z,9.90
2023-03-02T07:28:59.429Z,10.27
2023-03-02T07:31:32.455Z,8.15
2023-03-02T07:34:02.114Z,9.88
2023-03-02T07:36:31.661Z,10.32
2023-03-02T07:39:01.207Z,8.48
2023-03-02T07:41:31.229Z,12.35
2023-03-02T07:44:01.089Z,9.73
2023-03-02T07:46:33.284Z,6.30
2023-03-02T07:49:03.044Z,6.55
2023-03-02T07:51:33.036Z,6.45
2023-03-02T07:54:05.055Z,6.03
2023-03-02T07:56:34.729Z,5.80
2023-03-02T07:59:04.441Z,6.80
2023-03-02T08:01:36.569Z,7.25
2023-03-02T08:04:06.747Z,10.52
2023-03-02T08:06:36.344Z,7.43
2023-03-02T08:09:06.784Z,7.10
2023-03-02T08:11:36.321Z,7.53
2023-03-02T08:14:06.270Z,6.70
2023-03-02T08:16:38.502Z,7.55
2023-03-02T08:19:08.157Z,6.55
2023-03-02T08:21:37.771Z,7.40
2023-03-02T08:24:10.738Z,6.88
2023-03-02T08:26:40.486Z,8.23
2023-03-02T08:29:10.060Z,7.45
2023-03-02T08:31:42.325Z,8.20
2023-03-02T08:34:12.110Z,7.68
2023-03-02T08:36:43.616Z,7.00
2023-03-02T08:39:13.228Z,8.57
2023-03-02T08:41:42.877Z,8.30
2023-03-02T08:44:12.478Z,8.90
2023-03-02T08:46:44.662Z,7.70
2023-03-02T08:49:14.272Z,9.30
2023-03-02T08:51:43.824Z,8.15
2023-03-02T08:54:14.562Z,7.72
2023-03-02T08:56:44.589Z,7.88
2023-03-02T08:59:16.250Z,7.75
2023-03-02T09:01:48.532Z,7.90
2023-03-02T09:04:18.362Z,7.45
2023-03-02T09:06:48.568Z,7.85
2023-03-02T09:09:18.457Z,8.07
2023-03-02T09:11:48.249Z,7.32
2023-03-02T09:14:18.105Z,6.90
2023-03-02T09:16:50.297Z,6.90
2023-03-02T09:19:19.846Z,7.30
2023-03-02T09:21:49.914Z,9.40
2023-03-02T09:24:19.569Z,13.70
2023-03-02T09:26:49.177Z,7.78
2023-03-02T09:29:18.718Z,8.07
2023-03-02T09:31:50.909Z,6.13
2023-03-02T09:34:20.829Z,7.30
2023-03-02T09:36:50.458Z,6.95
2023-03-02T09:39:20.394Z,6.35
2023-03-02T09:42:22.029Z,6.60
2023-03-02T09:45:05.853Z,6.22
2023-03-02T09:47:46.655Z,5.80
2023-03-02T09:50:29.049Z,6.13
2023-03-02T09:53:17.420Z,6.03
2023-03-02T09:55:50.099Z,5.60
2023-03-02T09:58:23.177Z,6.47
2023-03-02T10:00:54.560Z,6.43
2023-03-02T10:03:34.854Z,6.53
2023-03-02T10:06:04.779Z,6.60
2023-03-02T10:08:40.882Z,6.68
2023-03-02T10:11:20.446Z,6.25
2023-03-02T10:13:54.376Z,6.50
2023-03-02T10:16:33.954Z,7.18
2023-03-02T10:19:14.996Z,6.95
2023-03-02T10:21:48.192Z,6.65
2023-03-02T10:24:29.649Z,7.25
2023-03-02T10:27:04.307Z,6.85
2023-03-02T10:29:46.339Z,7.35
2023-03-02T10:32:23.693Z,7.25
2023-03-02T10:34:56.682Z,7.57
2023-03-02T10:37:28.129Z,7.60
2023-03-02T10:39:58.176Z,7.15
2023-03-02T10:42:32.486Z,7.13
2023-03-02T10:45:11.562Z,7.13
2023-03-02T10:47:41.114Z,8.38
2023-03-02T10:50:24.674Z,8.13
2023-03-02T10:53:00.145Z,7.40
2023-03-02T10:55:31.819Z,8.02
2023-03-02T10:58:06.947Z,7.35
2023-03-02T11:00:37.675Z,6.97
2023-03-02T11:03:22.776Z,8.07
2023-03-02T11:05:54.928Z,8.32
2023-03-02T11:08:26.993Z,7.90
2023-03-02T11:11:00.947Z,8.00
2023-03-02T11:13:33.007Z,6.97
2023-03-02T11:16:04.195Z,7.47
2023-03-02T11:18:38.232Z,7.68
2023-03-02T11:21:17.640Z,7.97
2023-03-02T11:23:57.968Z,7.72
2023-03-02T11:26:29.580Z,7.18
2023-03-02T11:29:05.789Z,7.68
2023-03-02T11:31:40.996Z,7.20
2023-03-02T11:34:29.856Z,7.75
2023-03-02T11:37:09.421Z,7.57
2023-03-02T11:39:55.973Z,7.20
2023-03-02T11:42:31.457Z,7.72
2023-03-02T11:45:05.277Z,7.38
2023-03-02T11:47:36.528Z,7.80
2023-03-02T11:50:09.462Z,7.43
2023-03-02T11:52:47.637Z,8.30
2023-03-02T11:55:22.478Z,7.63
2023-03-02T11:57:54.873Z,7.43
2023-03-02T12:00:32.883Z,8.23
2023-03-02T12:03:07.507Z,7.90
2023-03-02T12:05:40.395Z,9.23
2023-03-02T12:08:39.443Z,8.10
2023-03-02T12:11:31.007Z,8.85
2023-03-02T12:14:02.565Z,7.55
2023-03-02T12:16:38.688Z,8.93
2023-03-02T12:19:16.876Z,9.45
2023-03-02T12:21:58.762Z,10.15
2023-03-02T12:24:33.217Z,8.68
2023-03-02T12:27:05.108Z,8.73
2023-03-02T12:29:42.939Z,8.43
2023-03-02T12:32:25.292Z,7.32
2023-03-02T12:34:57.880Z,8.95
2023-03-02T12:37:30.578Z,9.98
2023-03-02T12:40:34.405Z,9.18
2023-03-02T12:43:23.526Z,8.48
2023-03-02T12:46:26.854Z,8.80
2023-03-02T12:49:07.725Z,7.57
2023-03-02T12:51:50.449Z,7.40
2023-03-02T12:54:22.088Z,11.27
2023-03-02T12:57:08.744Z,6.90
2023-03-02T12:59:39.620Z,7.60
2023-03-02T13:02:17.743Z,8.82
2023-03-02T13:04:47.755Z,8.65
2023-03-02T13:07:22.424Z,7.53
2023-03-02T13:09:57.288Z,8.43
2023-03-02T13:12:32.023Z,7.60
2023-03-02T13:15:02.087Z,9.02
2023-03-02T13:17:34.305Z,9.73
2023-03-02T13:20:07.899Z,9.13
2023-03-02T13:22:37.616Z,9.32
2023-03-02T13:25:09.856Z,10.27
2023-03-02T13:27:42.056Z,9.60
2023-03-02T13:30:15.279Z,9.20
2023-03-02T13:32:45.637Z,8.93
2023-03-02T13:35:24.387Z,8.43
2023-03-02T13:38:02.179Z,8.55
2023-03-02T13:40:44.946Z,9.90
2023-03-02T13:43:38.338Z,9.52
2023-03-02T13:46:27.548Z,9.13
2023-03-02T13:49:13.948Z,9.43
2023-03-02T13:51:45.826Z,9.70
2023-03-02T13:54:24.768Z,9.85
2023-03-02T13:56:55.790Z,10.20
2023-03-02T13:59:28.236Z,8.38
2023-03-02T14:01:58.002Z,9.20
2023-03-02T14:04:27.692Z,12.32
2023-03-02T14:06:57.708Z,11.15
2023-03-02T14:09:27.363Z,10.38
2023-03-02T14:11:58.626Z,10.52
2023-03-02T14:14:44.458Z,10.63
2023-03-02T14:17:17.437Z,10.27
2023-03-02T14:19:52.582Z,10.95
2023-03-02T14:22:22.580Z,10.68
2023-03-02T14:24:52.161Z,11.63
2023-03-02T14:27:22.768Z,11.88
2023-03-02T14:29:54.978Z,10.95
2023-03-02T14:32:24.643Z,11.02
2023-03-02T14:34:54.250Z,10.88
2023-03-02T14:37:30.361Z,10.38
2023-03-02T14:42:29.793Z,9.90
2023-03-02T14:45:01.970Z,10.60
2023-03-02T14:47:31.984Z,10.25
2023-03-02T14:50:01.596Z,11.75
2023-03-02T14:52:35.326Z,12.80
2023-03-02T14:55:10.333Z,12.13
2023-03-02T14:57:40.980Z,12.02
2023-03-02T15:00:17.212Z,11.85
2023-03-02T15:02:46.970Z,11.90
2023-03-02T15:05:16.812Z,12.82
2023-03-02T15:07:46.390Z,13.45
2023-03-02T15:10:17.576Z,13.85
2023-03-02T15:12:47.325Z,14.07
2023-03-02T15:15:19.800Z,14.57
2023-03-02T15:17:49.389Z,14.20
2023-03-02T15:20:19.738Z,14.43
2023-03-02T15:22:49.334Z,14.00
2023-03-02T15:25:19.137Z,15.45
2023-03-02T15:27:48.778Z,15.48
2023-03-02T15:30:21.903Z,14.10
2023-03-02T15:32:51.549Z,14.93
2023-03-02T15:35:21.309Z,13.55
2023-03-02T15:37:50.889Z,13.07
2023-03-02T15:40:20.763Z,13.40
2023-03-02T15:42:50.642Z,13.75
2023-03-02T15:45:22.917Z,13.77
2023-03-02T15:47:52.497Z,13.93
2023-03-02T15:50:22.115Z,14.82
2023-03-02T15:52:51.920Z,15.30
2023-03-02T15:55:21.565Z,13.73
2023-03-02T15:57:51.180Z,14.13
2023-03-02T16:00:24.341Z,13.80
2023-03-02T16:02:53.956Z,14.10
2023-03-02T16:05:23.578Z,14.93
2023-03-02T16:07:53.171Z,15.55
2023-03-02T16:10:24.952Z,13.73
2023-03-02T16:12:54.522Z,15.20
2023-03-02T16:15:26.719Z,14.18
2023-03-02T16:17:56.304Z,15.10
2023-03-02T16:20:26.156Z,15.40
2023-03-02T16:22:55.700Z,15.70
2023-03-02T16:25:25.307Z,16.58
2023-03-02T16:27:56.020Z,16.17
2023-03-02T16:30:28.184Z,15.38
2023-03-02T16:33:00.386Z,15.60
2023-03-02T16:35:31.029Z,15.93
2023-03-02T16:38:00.847Z,16.65
2023-03-02T16:40:31.010Z,18.50
2023-03-02T16:43:00.634Z,17.77
2023-03-02T16:45:32.814Z,18.42
2023-03-02T16:48:02.446Z,17.30
2023-03-02T16:50:32.117Z,19.08
2023-03-02T16:53:02.244Z,18.70
2023-03-02T16:55:31.916Z,17.52
2023-03-02T16:58:01.457Z,20.27
2023-03-02T17:00:33.956Z,22.00
2023-03-02T17:03:03.724Z,20.50
2023-03-02T17:05:33.437Z,18.38
2023-03-02T17:08:05.247Z,15.70
2023-03-02T17:10:34.798Z,16.02
2023-03-02T17:13:04.396Z,15.90
2023-03-02T17:15:37.320Z,15.90
2023-03-02T17:18:07.072Z,15.73
2023-03-02T17:20:36.947Z,17.17
2023-03-02T17:23:07.256Z,18.65
2023-03-02T17:25:36.858Z,16.25
2023-03-02T17:28:06.626Z,16.98
2023-03-02T17:30:38.808Z,17.92
2023-03-02T17:33:08.457Z,15.52
2023-03-02T17:35:38.479Z,17.27
2023-03-02T17:38:08.144Z,15.63
2023-03-02T17:40:37.755Z,18.20
2023-03-02T17:43:08.418Z,17.13
2023-03-02T17:45:42.007Z,18.00
2023-03-02T17:48:11.833Z,16.98
2023-03-02T17:50:41.384Z,17.70
2023-03-02T17:53:10.961Z,28.35
2023-03-02T17:55:40.622Z,17.85
2023-03-02T17:58:10.236Z,18.73
2023-03-02T18:00:42.747Z,26.98
2023-03-02T18:03:12.377Z,27.55
2023-03-02T18:05:41.951Z,17.55
2023-03-02T18:08:11.510Z,17.67
2023-03-02T18:10:41.099Z,17.95
2023-03-02T18:13:10.718Z,27.48
2023-03-02T18:15:42.896Z,18.15
2023-03-02T18:18:12.705Z,18.30
2023-03-02T18:20:42.321Z,25.27
2023-03-02T18:23:15.432Z,18.48
2023-03-02T18:25:45.464Z,18.05
2023-03-02T18:28:15.056Z,31.15
2023-03-02T18:30:47.339Z,17.48
2023-03-02T18:33:17.049Z,22.95
2023-03-02T18:35:47.427Z,22.67
2023-03-02T18:38:19.106Z,24.77
2023-03-02T18:40:48.695Z,22.35
2023-03-02T18:43:18.415Z,25.02
2023-03-02T18:45:50.564Z,21.10
2023-03-02T18:48:20.199Z,18.10
2023-03-02T18:50:50.535Z,19.58
2023-03-02T18:53:20.152Z,18.67
2023-03-02T18:55:50.708Z,19.45
2023-03-02T18:58:21.974Z,19.02
2023-03-02T19:00:55.605Z,19.45
2023-03-02T19:03:25.367Z,18.63
2023-03-02T19:05:57.940Z,19.08
2023-03-02T19:08:28.923Z,18.38
2023-03-02T19:10:58.595Z,19.20
2023-03-02T19:13:28.138Z,18.80
2023-03-02T19:16:02.076Z,18.48
2023-03-02T19:18:33.315Z,25.85
2023-03-02T19:21:04.942Z,18.08
2023-03-02T19:23:35.042Z,17.83
2023-03-02T19:26:04.927Z,18.50
2023-03-02T19:28:35.119Z,17.13
2023-03-02T19:31:11.334Z,19.65
2023-03-02T19:33:42.385Z,25.35
2023-03-02T19:36:12.400Z,22.02
2023-03-02T19:38:43.196Z,19.92
2023-03-02T19:41:15.931Z,19.25
2023-03-02T19:43:46.195Z,18.52
2023-03-02T19:46:20.038Z,18.20
2023-03-02T19:48:50.060Z,22.38
2023-03-02T19:51:19.976Z,19.63
2023-03-02T19:53:49.693Z,19.17
2023-03-02T19:56:26.877Z,17.73
2023-03-02T19:58:56.562Z,17.75
2023-03-02T20:01:30.063Z,24.48
2023-03-02T20:04:00.332Z,26.50
2023-03-02T20:06:33.330Z,20.27
2023-03-02T20:09:04.347Z,19.65
2023-03-02T20:11:34.743Z,22.48
2023-03-02T20:14:04.964Z,22.52
2023-03-02T20:16:38.980Z,18.85
2023-03-02T20:19:08.704Z,17.98
2023-03-02T20:21:39.283Z,17.33
2023-03-02T20:24:09.385Z,15.93
2023-03-02T20:26:39.000Z,17.73
2023-03-02T20:29:08.716Z,18.25
2023-03-02T20:31:41.641Z,15.98
2023-03-02T20:34:16.562Z,16.45
2023-03-02T20:36:47.116Z,16.58
2023-03-02T20:39:20.890Z,19.67
2023-03-02T20:41:50.776Z,19.38
2023-03-02T20:44:21.122Z,17.50
2023-03-02T20:46:58.457Z,22.20
2023-03-02T20:49:30.158Z,17.08
2023-03-02T20:52:02.002Z,17.58
2023-03-02T20:54:35.344Z,18.65
2023-03-02T20:57:05.381Z,17.33
2023-03-02T20:59:35.445Z,15.93
2023-03-02T21:02:08.247Z,16.20
2023-03-02T21:04:38.197Z,15.65
2023-03-02T21:07:07.752Z,15.52
2023-03-02T21:09:37.355Z,20.70
2023-03-02T21:12:08.897Z,18.23
2023-03-02T21:14:38.523Z,15.75
2023-03-02T21:17:11.825Z,19.88
2023-03-02T21:19:41.473Z,17.17
2023-03-02T21:22:11.092Z,15.95
2023-03-02T21:24:40.745Z,17.20
2023-03-02T21:27:10.383Z,15.88
2023-03-02T21:29:39.995Z,22.85
2023-03-02T21:32:12.210Z,17.15
2023-03-02T21:34:41.785Z,18.17
2023-03-02T21:37:11.350Z,15.80
2023-03-02T21:39:41.016Z,16.15
2023-03-02T21:42:10.576Z,13.43
2023-03-02T21:44:40.174Z,13.57
2023-03-02T21:47:12.376Z,20.17
2023-03-02T21:49:41.962Z,13.63
2023-03-02T21:52:11.554Z,14.20
2023-03-02T21:54:41.103Z,19.52
2023-03-02T21:57:10.890Z,12.35
2023-03-02T21:59:40.510Z,14.90
2023-03-02T22:02:13.791Z,15.82
2023-03-02T22:04:43.438Z,15.48
2023-03-02T22:07:12.974Z,10.85
2023-03-02T22:09:42.597Z,11.90
2023-03-02T22:12:16.010Z,12.20
2023-03-02T22:14:45.619Z,14.45
2023-03-02T22:17:21.416Z,13.27
2023-03-02T22:19:51.882Z,13.07
2023-03-02T22:22:30.178Z,11.95
2023-03-02T22:24:59.799Z,14.35
2023-03-02T22:27:31.443Z,13.18
2023-03-02T22:30:02.358Z,14.73
2023-03-02T22:32:38.903Z,13.57
2023-03-02T22:35:23.194Z,12.93
2023-03-02T22:37:54.472Z,12.25
2023-03-02T22:40:31.056Z,11.65
2023-03-02T22:43:15.046Z,12.15
2023-03-02T22:45:45.076Z,13.90
2023-03-02T22:48:21.049Z,14.15
2023-03-02T22:50:52.186Z,14.15
2023-03-02T22:53:30.674Z,10.70
2023-03-02T22:56:03.129Z,11.02
2023-03-02T22:58:40.383Z,10.43
2023-03-02T23:01:22.157Z,10.57
2023-03-02T23:03:56.629Z,10.15
2023-03-02T23:06:30.341Z,9.95
2023-03-02T23:09:02.144Z,11.45
2023-03-02T23:11:36.187Z,9.75
2023-03-02T23:14:13.922Z,11.10
2023-03-02T23:16:43.742Z,10.27
2023-03-02T23:19:15.938Z,10.77
2023-03-02T23:21:48.953Z,10.35
2023-03-02T23:24:22.057Z,9.55
2023-03-02T23:26:53.266Z,8.27
2023-03-02T23:29:23.976Z,10.18
2023-03-02T23:31:53.880Z,9.13
2023-03-02T23:34:30.996Z,9.80
2023-03-02T23:37:01.114Z,9.45
2023-03-02T23:39:30.745Z,9.00
2023-03-02T23:42:00.453Z,9.00
2023-03-02T23:44:30.067Z,8.88
2023-03-02T23:46:59.685Z,12.10
2023-03-02T23:49:31.825Z,9.65
2023-03-02T23:52:01.524Z,10.73
2023-03-02T23:54:31.097Z,9.68
2023-03-02T23:57:00.802Z,11.50
2023-03-02T23:59:30.411Z,12.40
